Portada
METAR-TAF:

METAR-TAF

Aeroports :

Castres, França

latitud: 43-33-25N, longitud: 2-17-21E, altitud: 239 m

Observació

L'informe es va fer fa 24 minuts, a les 08:00 UTC
Vent 2 kt amb direcció variable
Temperatura 23°C
Humitat 57%
Pressió 1010 hPa
Visibilitat 10 km o més
sense núvols per sota de 1500 mi sense presència de cumulonimbus.

METAR: LFCK 030800Z AUTO VRB02KT CAVOK 23/14 Q1010 BECMG SCT060TCU

Hora: 10:24 (08:24 UTC)

Pronòstic

L'informe es va fer fa 3 hores i 24 minuts, a les 05:00 UTC
Pronòstic vàlid del 03 a les 06 UTC al 03 a les 15 UTC
Vent 2 kt amb direcció variable
Visibilitat 10 km o més
sense núvols per sota de 1500 mi sense presència de cumulonimbus.
Evolucionant progressivament
l' 03 a les 08 UTC al 03 a les 10 UTC
Vent 7 kt del Oest
Núvols disperses a una alçada de 6000 ft, Cumulus congestus.

TAF: LFCK 030500Z 0306/0315 VRB02KT CAVOK BECMG 0308/0310 27007KT SCT060TCU

Observacions i pronòstics meteorològics de més de 4000 aeroports (METAR i TAF).

Les estacions disponibles són els punts grocs i vermells al mapa.

Posi el ratolí al punt desitjat per veure el nom de l'estació.

Feu clic per veure les observacions i els pronòstics meteorològics.

Per canviar el mapa: feu clic els botons verds amb una creu de color negre per apropar; al botó verd amb un guió per allunyar la imatge; o en les fletxes verdes per a mapes adjacents.


METAR-TAF: